Wetterdaten: aktuell Mittwoch, 20.09.2017 14:40
Datum Zeit Luft-Temp. Wasser Feuchte A. Luftdruck Regen Wind Richtung Richtung Windben
20.09.2017 14:40 13.3 C 17.2 C 82 % 1022.2 hPa 0.0 l/m 0.0 km/h (0 Bft) O-SO 122 0.0 km/h (0 Bft)
20.09.2017 13:40 12.5 C 16.7 C 85 % 1022.6 hPa 0.0 l/m 10.8 km/h (2 Bft) SO 145 17.4 km/h (3 Bft)
20.09.2017 12:40 12.4 C 16.7 C 86 % 1022.9 hPa 0.0 l/m 11.2 km/h (2 Bft) SO 142 17.4 km/h (3 Bft)
20.09.2017 11:40 11.9 C 16.7 C 85 % 1023.3 hPa 0.0 l/m 3.3 km/h (1 Bft) W-NW 301 13.0 km/h (3 Bft)
20.09.2017 10:40 11.2 C 16.7 C 89 % 1023.1 hPa 0.0 l/m 4.3 km/h (1 Bft) NW 306 8.7 km/h (2 Bft)
20.09.2017 09:40 10.7 C 16.7 C 92 % 1023.3 hPa 0.0 l/m 7.4 km/h (2 Bft) N-NW 328 13.0 km/h (3 Bft)
20.09.2017 08:40 10.2 C 16.7 C 99 % 1022.8 hPa 0.0 l/m 0.0 km/h (0 Bft) W-SW 237 0.0 km/h (0 Bft)
20.09.2017 07:40 10.1 C 16.7 C 97 % 1022.6 hPa 0.0 l/m 0.0 km/h (0 Bft) W-SW 250 0.0 km/h (0 Bft)
20.09.2017 06:40 10.5 C 16.7 C 94 % 1022.3 hPa 0.0 l/m 0.0 km/h (0 Bft) W-NW 293 0.0 km/h (0 Bft)
20.09.2017 05:40 10.4 C 16.7 C 94 % 1022.0 hPa 0.0 l/m 3.2 km/h (1 Bft) NW 314 13.0 km/h (3 Bft)
20.09.2017 05:22 10.3 C 16.7 C 95 % 1024.0 hPa 0.0 l/m 0.0 km/h (0 Bft) S 180 0.0 km/h (0 Bft)
20.09.2017 05:10 10.1 C 16.7 C 96 % 1023.9 hPa 0.0 l/m 0.0 km/h (0 Bft) S 180 0.0 km/h (0 Bft)
20.09.2017 04:58 9.8 C 16.7 C 98 % 1023.9 hPa 0.0 l/m 0.0 km/h (0 Bft) S 180 0.0 km/h (0 Bft)
20.09.2017 04:46 9.9 C 16.7 C 98 % 1024.0 hPa 0.0 l/m 0.0 km/h (0 Bft) S 180 0.0 km/h (0 Bft)
20.09.2017 04:34 10.3 C 16.7 C 97 % 1023.9 hPa 0.0 l/m 0.0 km/h (0 Bft) S 180 0.0 km/h (0 Bft)
20.09.2017 04:22 10.2 C 16.7 C 97 % 1023.9 hPa 0.0 l/m 0.0 km/h (0 Bft) S 180 0.0 km/h (0 Bft)
20.09.2017 04:10 10.0 C 16.7 C 98 % 1023.9 hPa 0.0 l/m 0.0 km/h (0 Bft) S 180 0.0 km/h (0 Bft)
20.09.2017 03:58 10.0 C 16.7 C 97 % 1023.9 hPa 0.0 l/m 0.0 km/h (0 Bft) S 180 0.0 km/h (0 Bft)
20.09.2017 03:46 10.0 C 16.7 C 97 % 1023.8 hPa 0.0 l/m 0.0 km/h (0 Bft) S 180 0.0 km/h (0 Bft)
20.09.2017 03:34 10.1 C 16.7 C 96 % 1023.9 hPa 0.0 l/m 0.0 km/h (0 Bft) S 180 0.0 km/h (0 Bft)
20.09.2017 03:22 10.2 C 16.7 C 96 % 1023.9 hPa 0.0 l/m 0.0 km/h (0 Bft) S 180 0.0 km/h (0 Bft)
20.09.2017 03:10 10.3 C 16.7 C 95 % 1023.8 hPa 0.0 l/m 0.0 km/h (0 Bft) S 180 0.0 km/h (0 Bft)
20.09.2017 02:58 10.3 C 16.7 C 95 % 1023.9 hPa 0.0 l/m 1.4 km/h (1 Bft) S 180 6.4 km/h (2 Bft)
20.09.2017 02:46 10.3 C 16.7 C 95 % 1023.9 hPa 0.0 l/m 0.0 km/h (0 Bft) S 180 9.7 km/h (2 Bft)
20.09.2017 02:34 10.2 C 16.7 C 96 % 1024.0 hPa 0.0 l/m 0.0 km/h (0 Bft) S 180 0.0 km/h (0 Bft)
20.09.2017 02:22 10.2 C 16.7 C 96 % 1023.9 hPa 0.0 l/m 0.0 km/h (0 Bft) S 180 0.0 km/h (0 Bft)
20.09.2017 02:10 10.1 C 16.7 C 97 % 1024.0 hPa 0.0 l/m 0.0 km/h (0 Bft) S 180 0.0 km/h (0 Bft)
20.09.2017 01:58 10.0 C 16.7 C 100 % 1024.0 hPa 0.0 l/m 0.0 km/h (0 Bft) S 180 0.0 km/h (0 Bft)
20.09.2017 01:46 10.1 C 16.7 C 98 % 1023.9 hPa 0.0 l/m 0.0 km/h (0 Bft) S 180 0.0 km/h (0 Bft)
20.09.2017 01:34 10.2 C 16.7 C 98 % 1023.9 hPa 0.0 l/m 0.0 km/h (0 Bft) S 180 0.0 km/h (0 Bft)
20.09.2017 01:22 9.8 C 16.7 C 100 % 1023.9 hPa 0.0 l/m 0.0 km/h (0 Bft) S 180 4.8 km/h (1 Bft)
20.09.2017 01:10 9.7 C 16.7 C 100 % 1023.9 hPa 0.0 l/m 0.0 km/h (0 Bft) S 180 0.0 km/h (0 Bft)
20.09.2017 00:58 9.6 C 16.7 C 100 % 1023.8 hPa 0.0 l/m 0.0 km/h (0 Bft) S 180 0.0 km/h (0 Bft)
20.09.2017 00:46 9.4 C 16.7 C 100 % 1023.9 hPa 0.0 l/m 0.0 km/h (0 Bft) S 180 0.0 km/h (0 Bft)
20.09.2017 00:34 9.4 C 16.7 C 100 % 1023.9 hPa 0.0 l/m 0.0 km/h (0 Bft) S 180 0.0 km/h (0 Bft)
20.09.2017 00:22 9.4 C 16.7 C 100 % 1023.8 hPa 0.0 l/m 0.0 km/h (0 Bft) S 180 0.0 km/h (0 Bft)
20.09.2017 00:10 9.3 C 16.7 C 100 % 1023.8 hPa 0.0 l/m 0.0 km/h (0 Bft) S 180 0.0 km/h (0 Bft)
19.09.2017 23:58 9.3 C 16.7 C 100 % 1023.8 hPa 0.0 l/m 0.0 km/h (0 Bft) S 180 0.0 km/h (0 Bft)
19.09.2017 23:46 9.4 C 16.7 C 100 % 1023.8 hPa 0.0 l/m 0.0 km/h (0 Bft) S 180 0.0 km/h (0 Bft)
19.09.2017 23:34 9.4 C 16.7 C 100 % 1023.6 hPa 0.0 l/m 0.0 km/h (0 Bft) S 180 0.0 km/h (0 Bft)
19.09.2017 23:22 9.2 C 16.7 C 100 % 1023.8 hPa 0.0 l/m 0.0 km/h (0 Bft) S 180 0.0 km/h (0 Bft)
19.09.2017 23:10 9.2 C 16.7 C 100 % 1023.8 hPa 0.0 l/m 0.0 km/h (0 Bft) S 180 0.0 km/h (0 Bft)
19.09.2017 22:58 9.2 C 16.7 C 100 % 1023.7 hPa 0.0 l/m 0.0 km/h (0 Bft) S 180 0.0 km/h (0 Bft)
19.09.2017 22:46 9.2 C 16.7 C 100 % 1023.7 hPa 0.0 l/m 0.0 km/h (0 Bft) S 180 0.0 km/h (0 Bft)
19.09.2017 22:34 9.2 C 16.7 C 100 % 1023.7 hPa 0.0 l/m 0.0 km/h (0 Bft) S 180 0.0 km/h (0 Bft)
19.09.2017 21:50 9.3 C 16.7 C 98 % 1021.5 hPa 0.0 l/m 0.0 km/h (0 Bft) S-SO 168 0.0 km/h (0 Bft)
19.09.2017 20:50 9.4 C 16.7 C 97 % 1021.1 hPa 0.0 l/m 0.0 km/h (0 Bft) O 79 0.0 km/h (0 Bft)
19.09.2017 19:50 10.2 C 16.7 C 91 % 1020.0 hPa 0.0 l/m 4.4 km/h (1 Bft) S-SO 167 11.6 km/h (2 Bft)
19.09.2017 18:50 11.1 C 17.2 C 85 % 1019.3 hPa 0.0 l/m 10.8 km/h (2 Bft) W 272 17.4 km/h (3 Bft)
19.09.2017 17:50 12.3 C 17.2 C 84 % 1018.5 hPa 0.0 l/m 5.2 km/h (1 Bft) SW 223 14.5 km/h (3 Bft)
19.09.2017 16:50 11.5 C 16.7 C 86 % 1018.4 hPa 0.0 l/m 0.0 km/h (0 Bft) S-SO 156 0.0 km/h (0 Bft)
19.09.2017 15:50 10.2 C 16.7 C 87 % 1018.1 hPa 0.3 l/m 0.0 km/h (0 Bft) W-NW 300 0.0 km/h (0 Bft)
19.09.2017 15:00 12.3 C 16.7 C 83 % 1018.1 hPa 0.0 l/m 9.9 km/h (2 Bft) W-NW 285 15.9 km/h (3 Bft)
_ Min-Zeit 22:36 15:00 12:20 15:05 - 15:40 - - 15:40
Minimum _ 9.1 C 16.7 C 76 % 1018.0 hPa - 0.0 km/h (0 Bft) - - 0.0 km/h (0 Bft)
_ Max-Zeit 12:25 17:15 22:30 01:08 15:25 15:20 - - 15:20
Maximum _ 13.4 C 17.2 C 100 % 1024.0 hPa 0.3 l/m 24.7 km/h
NW (4 Bft)
- - 36.2 km/h
NW (5 Bft)
Durchschnitt _ 10.8 C 16.7 C 92 % 1021.8 hPa #0.3 l/m 3.3 km/h (1 Bft) S-SO - 6.0 km/h (2 Bft)